createdAt,value
2023-03-16T00:02:20.225Z,1.98
2023-03-16T00:04:47.485Z,1.95
2023-03-16T00:07:16.757Z,2.30
2023-03-16T00:09:45.803Z,1.90
2023-03-16T00:12:15.932Z,2.10
2023-03-16T00:14:46.159Z,2.10
2023-03-16T00:17:20.320Z,2.42
2023-03-16T00:19:57.643Z,2.67
2023-03-16T00:22:26.853Z,2.20
2023-03-16T00:24:54.056Z,2.20
2023-03-16T00:27:23.573Z,2.40
2023-03-16T00:29:57.283Z,2.17
2023-03-16T00:32:28.663Z,2.35
2023-03-16T00:34:58.134Z,2.30
2023-03-16T00:37:32.936Z,2.33
2023-03-16T00:40:00.202Z,2.60
2023-03-16T00:42:34.241Z,2.33
2023-03-16T00:45:07.059Z,2.00
2023-03-16T00:47:34.841Z,2.22
2023-03-16T00:50:01.836Z,2.60
2023-03-16T00:52:29.059Z,2.72
2023-03-16T00:55:03.456Z,2.50
2023-03-16T00:57:30.517Z,3.00
2023-03-16T00:59:57.788Z,2.60
2023-03-16T01:02:28.942Z,2.53
2023-03-16T01:04:55.988Z,2.22
2023-03-16T01:07:23.303Z,2.95
2023-03-16T01:09:54.731Z,2.47
2023-03-16T01:12:24.230Z,2.53
2023-03-16T01:14:53.804Z,2.42
2023-03-16T01:17:22.956Z,2.53
2023-03-16T01:19:50.291Z,2.60
2023-03-16T01:22:20.375Z,2.85
2023-03-16T01:24:49.617Z,2.40
2023-03-16T01:27:19.509Z,2.42
2023-03-16T01:29:46.445Z,3.10
2023-03-16T01:32:13.682Z,2.45
2023-03-16T01:34:41.555Z,2.58
2023-03-16T01:37:11.777Z,2.50
2023-03-16T01:39:44.744Z,2.65
2023-03-16T01:42:15.365Z,2.80
2023-03-16T01:45:01.729Z,2.40
2023-03-16T01:47:39.920Z,2.40
2023-03-16T01:50:13.009Z,2.60
2023-03-16T01:52:44.680Z,2.17
2023-03-16T01:55:15.035Z,1.90
2023-03-16T01:57:44.114Z,2.08
2023-03-16T02:00:31.549Z,1.98
2023-03-16T02:03:15.415Z,2.25
2023-03-16T02:06:01.380Z,2.08
2023-03-16T02:08:33.806Z,2.00
2023-03-16T02:11:07.191Z,2.30
2023-03-16T02:13:43.616Z,2.10
2023-03-16T02:16:11.255Z,2.40
2023-03-16T02:18:40.458Z,2.20
2023-03-16T02:21:22.528Z,2.40
2023-03-16T02:23:51.657Z,2.42
2023-03-16T02:26:34.440Z,3.00
2023-03-16T02:29:01.432Z,2.72
2023-03-16T02:31:32.668Z,2.30
2023-03-16T02:34:04.837Z,2.85
2023-03-16T02:36:31.906Z,2.80
2023-03-16T02:38:58.945Z,2.80
2023-03-16T02:41:29.269Z,3.38
2023-03-16T02:44:24.313Z,2.78
2023-03-16T02:46:54.956Z,3.22
2023-03-16T02:49:33.050Z,2.70
2023-03-16T02:52:00.157Z,2.90
2023-03-16T02:54:29.594Z,3.10
2023-03-16T02:56:56.813Z,2.80
2023-03-16T02:59:27.467Z,3.05
2023-03-16T03:01:57.287Z,3.25
2023-03-16T03:04:26.483Z,3.38
2023-03-16T03:06:55.986Z,3.20
2023-03-16T03:09:23.007Z,3.17
2023-03-16T03:11:56.082Z,3.10
2023-03-16T03:14:25.509Z,3.00
2023-03-16T03:16:57.428Z,3.30
2023-03-16T03:19:26.514Z,2.92
2023-03-16T03:21:56.850Z,3.60
2023-03-16T03:24:28.091Z,2.92
2023-03-16T03:26:55.129Z,3.17
2023-03-16T03:29:25.078Z,3.10
2023-03-16T03:31:52.272Z,3.05
2023-03-16T03:34:19.267Z,2.90
2023-03-16T03:36:46.283Z,2.65
2023-03-16T03:39:13.316Z,3.00
2023-03-16T03:41:42.952Z,2.72
2023-03-16T03:44:11.464Z,2.60
2023-03-16T03:46:38.629Z,1.88
2023-03-16T03:49:11.213Z,2.38
2023-03-16T03:51:39.321Z,2.50
2023-03-16T03:54:10.577Z,2.10
2023-03-16T03:56:53.384Z,2.40
2023-03-16T03:59:23.227Z,2.17
2023-03-16T04:02:14.284Z,2.20
2023-03-16T04:04:53.781Z,2.13
2023-03-16T04:07:23.120Z,1.77
2023-03-16T04:09:56.004Z,2.15
2023-03-16T04:12:34.831Z,2.42
2023-03-16T04:15:01.902Z,2.25
2023-03-16T04:17:37.144Z,2.22
2023-03-16T04:20:14.323Z,1.83
2023-03-16T04:22:43.125Z,2.13
2023-03-16T04:25:14.939Z,1.90
2023-03-16T04:27:47.475Z,1.90
2023-03-16T04:30:16.247Z,2.08
2023-03-16T04:32:48.358Z,1.80
2023-03-16T04:35:19.257Z,1.80
2023-03-16T04:37:55.441Z,1.63
2023-03-16T04:40:28.413Z,1.70
2023-03-16T04:43:03.540Z,2.00
2023-03-16T04:45:32.852Z,1.40
2023-03-16T04:48:00.486Z,1.65
2023-03-16T04:50:31.194Z,1.70
2023-03-16T04:53:00.522Z,1.30
2023-03-16T04:55:28.772Z,1.30
2023-03-16T04:57:55.882Z,1.55
2023-03-16T05:00:23.806Z,1.90
2023-03-16T05:03:04.308Z,1.63
2023-03-16T05:05:31.539Z,1.80
2023-03-16T05:08:01.731Z,1.75
2023-03-16T05:10:31.055Z,1.90
2023-03-16T05:13:00.431Z,1.52
2023-03-16T05:15:30.525Z,1.50
2023-03-16T05:18:08.462Z,1.60
2023-03-16T05:20:41.309Z,1.60
2023-03-16T05:23:13.998Z,1.50
2023-03-16T05:25:50.545Z,1.70
2023-03-16T05:28:22.462Z,1.50
2023-03-16T05:30:58.450Z,1.95
2023-03-16T05:33:30.110Z,1.98
2023-03-16T05:36:03.469Z,2.35
2023-03-16T05:38:32.008Z,1.85
2023-03-16T05:41:03.392Z,1.80
2023-03-16T05:43:47.771Z,1.63
2023-03-16T05:46:16.009Z,1.60
2023-03-16T05:48:48.185Z,1.50
2023-03-16T05:51:26.489Z,1.60
2023-03-16T05:53:59.093Z,1.42
2023-03-16T05:56:35.070Z,1.25
2023-03-16T05:59:03.467Z,1.70
2023-03-16T06:01:31.039Z,1.48
2023-03-16T06:03:58.035Z,2.33
2023-03-16T06:06:32.928Z,1.60
2023-03-16T06:09:06.701Z,1.70
2023-03-16T06:11:33.873Z,2.22
2023-03-16T06:14:01.346Z,1.92
2023-03-16T06:16:28.604Z,1.50
2023-03-16T06:18:59.186Z,1.63
2023-03-16T06:21:27.117Z,1.48
2023-03-16T06:24:02.032Z,1.40
2023-03-16T06:26:29.758Z,1.50
2023-03-16T06:29:02.282Z,1.85
2023-03-16T06:31:33.710Z,1.30
2023-03-16T06:34:04.834Z,1.42
2023-03-16T06:36:32.085Z,1.73
2023-03-16T06:39:01.692Z,1.73
2023-03-16T06:41:35.855Z,1.38
2023-03-16T06:44:03.268Z,1.17
2023-03-16T06:46:33.393Z,1.10
2023-03-16T06:49:05.131Z,1.50
2023-03-16T06:51:32.980Z,1.02
2023-03-16T06:54:02.255Z,1.00
2023-03-16T06:56:31.867Z,1.02
2023-03-16T06:58:58.910Z,1.10
2023-03-16T07:01:26.553Z,1.08
2023-03-16T07:03:55.749Z,1.23
2023-03-16T07:06:27.544Z,1.17
2023-03-16T07:08:54.947Z,1.25
2023-03-16T07:11:24.866Z,1.17
2023-03-16T07:13:51.858Z,1.05
2023-03-16T07:16:23.626Z,1.13
2023-03-16T07:18:53.448Z,1.10
2023-03-16T07:21:21.644Z,0.93
2023-03-16T07:23:48.882Z,1.10
2023-03-16T07:26:23.073Z,0.98
2023-03-16T07:29:00.228Z,1.05
2023-03-16T07:31:27.269Z,0.95
2023-03-16T07:33:57.521Z,1.00
2023-03-16T07:36:38.531Z,1.02
2023-03-16T07:39:14.393Z,0.70
2023-03-16T07:41:46.272Z,0.90
2023-03-16T07:44:31.314Z,1.30
2023-03-16T07:46:58.500Z,1.00
2023-03-16T07:49:29.216Z,0.85
2023-03-16T07:51:59.781Z,0.90
2023-03-16T07:54:35.042Z,0.73
2023-03-16T07:57:09.539Z,1.08
2023-03-16T07:59:41.660Z,0.93
2023-03-16T08:02:13.822Z,0.85
2023-03-16T08:04:44.692Z,0.90
2023-03-16T08:07:14.333Z,0.70
2023-03-16T08:09:51.558Z,0.95
2023-03-16T08:12:23.680Z,0.88
2023-03-16T08:14:50.802Z,0.95
2023-03-16T08:17:25.075Z,0.70
2023-03-16T08:19:53.447Z,0.80
2023-03-16T08:22:24.512Z,1.00
2023-03-16T08:24:54.710Z,0.70
2023-03-16T08:27:26.049Z,0.68
2023-03-16T08:30:05.517Z,0.77
2023-03-16T08:32:37.548Z,0.70
2023-03-16T08:35:07.049Z,1.15
2023-03-16T08:37:34.254Z,0.80
2023-03-16T08:40:01.290Z,0.75
2023-03-16T08:42:35.266Z,1.10
2023-03-16T08:45:12.357Z,0.80
2023-03-16T08:47:44.260Z,0.90
2023-03-16T08:50:19.675Z,0.65
2023-03-16T08:52:49.704Z,0.50
2023-03-16T08:55:16.685Z,0.80
2023-03-16T08:57:46.492Z,0.60
2023-03-16T09:00:14.763Z,0.90
2023-03-16T09:02:44.479Z,0.90
2023-03-16T09:05:14.892Z,0.80
2023-03-16T09:07:42.436Z,1.10
2023-03-16T09:10:13.315Z,1.10
2023-03-16T09:12:45.494Z,0.80
2023-03-16T09:15:13.814Z,1.33
2023-03-16T09:17:41.810Z,0.90
2023-03-16T09:20:21.915Z,1.10
2023-03-16T09:22:49.926Z,1.10
2023-03-16T09:25:16.985Z,1.10
2023-03-16T09:27:44.740Z,1.17
2023-03-16T09:30:12.347Z,1.40
2023-03-16T09:32:39.675Z,1.25
2023-03-16T09:35:07.081Z,1.02
2023-03-16T09:37:45.092Z,0.95
2023-03-16T09:40:25.571Z,1.40
2023-03-16T09:43:05.921Z,1.27
2023-03-16T09:45:38.527Z,1.13
2023-03-16T09:48:09.370Z,1.30
2023-03-16T09:50:48.791Z,1.15
2023-03-16T09:53:34.320Z,1.00
2023-03-16T09:56:05.833Z,1.42
2023-03-16T09:58:33.027Z,1.38
2023-03-16T10:01:02.925Z,1.08
2023-03-16T10:04:10.020Z,1.27
2023-03-16T10:06:48.346Z,1.27
2023-03-16T10:09:23.997Z,1.10
2023-03-16T10:11:56.894Z,1.13
2023-03-16T10:14:32.077Z,0.93
2023-03-16T10:17:14.754Z,1.48
2023-03-16T10:20:01.691Z,1.50
2023-03-16T10:22:33.624Z,1.27
2023-03-16T10:25:19.157Z,0.95
2023-03-16T10:27:48.870Z,1.02
2023-03-16T10:30:30.137Z,1.17
2023-03-16T10:33:03.893Z,1.20
2023-03-16T10:35:46.038Z,1.15
2023-03-16T10:38:33.218Z,1.15
2023-03-16T10:41:00.786Z,0.88
2023-03-16T10:43:32.284Z,1.02
2023-03-16T10:46:02.517Z,1.00
2023-03-16T10:48:34.166Z,0.90
2023-03-16T10:51:02.118Z,0.90
2023-03-16T10:53:34.458Z,1.13
2023-03-16T10:56:25.684Z,0.95
2023-03-16T10:58:52.646Z,0.82
2023-03-16T11:01:24.561Z,1.10
2023-03-16T11:03:53.247Z,1.02
2023-03-16T11:06:26.302Z,0.95
2023-03-16T11:08:57.402Z,1.13
2023-03-16T11:11:28.596Z,1.25
2023-03-16T11:14:00.382Z,1.08
2023-03-16T11:16:59.081Z,0.93
2023-03-16T11:19:35.866Z,1.00
2023-03-16T11:22:02.787Z,1.17
2023-03-16T11:25:03.069Z,1.10
2023-03-16T11:27:30.049Z,1.27
2023-03-16T11:30:12.470Z,1.05
2023-03-16T11:32:43.519Z,1.40
2023-03-16T11:35:19.583Z,1.10
2023-03-16T11:38:05.362Z,1.00
2023-03-16T11:40:56.538Z,1.63
2023-03-16T11:43:48.294Z,1.25
2023-03-16T11:46:29.412Z,1.08
2023-03-16T11:49:34.055Z,1.00
2023-03-16T11:52:29.560Z,1.00
2023-03-16T11:55:17.769Z,1.05
2023-03-16T11:57:49.135Z,0.95
2023-03-16T12:00:29.727Z,1.20
2023-03-16T12:03:24.947Z,1.42
2023-03-16T12:05:58.127Z,0.95
2023-03-16T12:08:30.606Z,1.00
2023-03-16T12:11:04.601Z,1.10
2023-03-16T12:13:44.755Z,1.38
2023-03-16T12:16:15.615Z,1.20
2023-03-16T12:18:58.080Z,1.13
2023-03-16T12:21:42.148Z,1.10
2023-03-16T12:24:22.345Z,1.40
2023-03-16T12:26:49.734Z,1.10
2023-03-16T12:29:43.865Z,0.80
2023-03-16T12:32:25.931Z,0.95
2023-03-16T12:35:04.302Z,1.15
2023-03-16T12:37:56.297Z,1.00
2023-03-16T12:40:36.074Z,1.00
2023-03-16T12:43:37.652Z,1.35
2023-03-16T12:46:09.137Z,1.08
2023-03-16T12:48:46.673Z,1.15
2023-03-16T12:51:13.649Z,1.10
2023-03-16T12:53:45.988Z,0.90
2023-03-16T12:58:48.647Z,1.83
2023-03-16T13:01:25.745Z,1.00
2023-03-16T13:04:00.008Z,0.93
2023-03-16T13:06:32.295Z,1.20
2023-03-16T13:09:04.802Z,1.30
2023-03-16T13:11:43.975Z,1.40
2023-03-16T13:14:32.529Z,1.40
2023-03-16T13:17:27.254Z,1.60
2023-03-16T13:20:00.045Z,1.30
2023-03-16T13:22:28.093Z,1.20
2023-03-16T13:24:56.098Z,1.50
2023-03-16T13:27:28.508Z,1.83
2023-03-16T13:32:33.407Z,1.35
2023-03-16T13:35:03.345Z,1.13
2023-03-16T13:37:30.323Z,1.50
2023-03-16T13:40:01.774Z,1.30
2023-03-16T13:42:32.661Z,1.30
2023-03-16T13:45:13.266Z,2.00
2023-03-16T13:47:46.113Z,1.40
2023-03-16T13:50:14.153Z,1.58
2023-03-16T13:53:02.886Z,1.40
2023-03-16T13:55:33.014Z,1.75
2023-03-16T13:58:00.040Z,1.80
2023-03-16T14:00:34.747Z,1.38
2023-03-16T14:03:13.174Z,1.38
2023-03-16T14:05:42.190Z,1.20
2023-03-16T14:08:19.606Z,1.70
2023-03-16T14:10:46.847Z,1.67
2023-03-16T14:13:28.259Z,1.40
2023-03-16T14:16:07.880Z,1.23
2023-03-16T14:18:44.960Z,1.35
2023-03-16T14:21:19.395Z,1.20
2023-03-16T14:23:53.134Z,1.42
2023-03-16T14:26:23.087Z,1.10
2023-03-16T14:29:00.264Z,1.45
2023-03-16T14:31:38.398Z,1.20
2023-03-16T14:34:29.510Z,1.40
2023-03-16T14:37:13.481Z,1.27
2023-03-16T14:39:43.029Z,1.23
2023-03-16T14:42:23.564Z,1.20
2023-03-16T14:44:52.727Z,1.35
2023-03-16T14:47:26.759Z,1.55
2023-03-16T14:49:53.842Z,1.42
2023-03-16T14:52:31.723Z,1.25
2023-03-16T14:55:03.547Z,1.27
2023-03-16T14:57:35.447Z,1.05
2023-03-16T15:00:10.120Z,1.20
2023-03-16T15:02:37.271Z,1.30
2023-03-16T15:05:06.978Z,1.33
2023-03-16T15:07:40.788Z,1.50
2023-03-16T15:10:16.451Z,1.60
2023-03-16T15:12:50.717Z,1.20
2023-03-16T15:15:22.593Z,1.38
2023-03-16T15:17:51.280Z,1.55
2023-03-16T15:20:31.700Z,1.50
2023-03-16T15:22:58.860Z,1.33
2023-03-16T15:25:36.379Z,1.50
2023-03-16T15:28:20.383Z,1.40
2023-03-16T15:30:52.560Z,1.50
2023-03-16T15:33:24.540Z,1.35
2023-03-16T15:35:55.897Z,1.60
2023-03-16T15:38:29.160Z,1.40
2023-03-16T15:41:01.648Z,1.50
2023-03-16T15:43:30.034Z,1.92
2023-03-16T15:46:05.255Z,2.22
2023-03-16T15:48:37.360Z,2.20
2023-03-16T15:51:22.389Z,2.00
2023-03-16T15:53:52.512Z,1.75
2023-03-16T15:56:23.809Z,1.60
2023-03-16T15:58:53.345Z,1.30
2023-03-16T16:01:27.772Z,1.27
2023-03-16T16:03:58.205Z,1.50
2023-03-16T16:06:25.193Z,1.27
2023-03-16T16:08:56.838Z,1.10
2023-03-16T16:11:31.939Z,1.02
2023-03-16T16:14:01.612Z,1.00
2023-03-16T16:16:29.432Z,1.23
2023-03-16T16:18:56.930Z,1.02
2023-03-16T16:21:29.171Z,1.42
2023-03-16T16:23:58.857Z,1.17
2023-03-16T16:26:49.868Z,1.50
2023-03-16T16:29:27.474Z,1.00
2023-03-16T16:31:59.191Z,1.00
2023-03-16T16:34:27.186Z,1.20
2023-03-16T16:36:55.164Z,0.90
2023-03-16T16:39:22.419Z,1.10
2023-03-16T16:41:54.162Z,1.30
2023-03-16T16:44:27.272Z,1.50
2023-03-16T16:46:54.811Z,1.20
2023-03-16T16:49:30.574Z,1.35
2023-03-16T16:51:58.047Z,1.50
2023-03-16T16:54:27.810Z,1.27
2023-03-16T16:56:59.975Z,1.58
2023-03-16T16:59:33.088Z,1.60
2023-03-16T17:02:03.280Z,1.92
2023-03-16T17:04:30.797Z,1.83
2023-03-16T17:07:00.894Z,1.90
2023-03-16T17:09:30.712Z,1.70
2023-03-16T17:12:01.168Z,1.60
2023-03-16T17:14:31.525Z,1.52
2023-03-16T17:17:03.145Z,2.20
2023-03-16T17:19:32.927Z,2.42
2023-03-16T17:22:08.726Z,2.42
2023-03-16T17:24:40.261Z,1.65
2023-03-16T17:27:10.273Z,2.28
2023-03-16T17:29:37.189Z,3.20
2023-03-16T17:32:10.198Z,3.50
2023-03-16T17:34:39.630Z,3.45
2023-03-16T17:37:14.125Z,3.08
2023-03-16T17:39:43.364Z,2.60
2023-03-16T17:42:23.162Z,2.00
2023-03-16T17:44:51.257Z,1.60
2023-03-16T17:47:26.663Z,1.63
2023-03-16T17:49:57.093Z,1.50
2023-03-16T17:52:28.955Z,1.50
2023-03-16T17:54:56.120Z,1.92
2023-03-16T17:57:27.888Z,2.10
2023-03-16T17:59:55.019Z,1.50
2023-03-16T18:02:34.701Z,1.38
2023-03-16T18:05:05.653Z,1.50
2023-03-16T18:07:34.712Z,1.27
2023-03-16T18:10:01.639Z,1.33
2023-03-16T18:12:28.590Z,1.35
2023-03-16T18:14:58.754Z,1.85
2023-03-16T18:17:30.095Z,1.67
2023-03-16T18:19:59.851Z,1.30
2023-03-16T18:22:28.009Z,1.63
2023-03-16T18:24:57.963Z,1.60
2023-03-16T18:27:29.300Z,1.40
2023-03-16T18:29:58.804Z,2.00
2023-03-16T18:32:28.657Z,1.55
2023-03-16T18:34:55.713Z,1.50
2023-03-16T18:37:29.468Z,1.42
2023-03-16T18:39:56.404Z,1.63
2023-03-16T18:42:25.788Z,1.90
2023-03-16T18:44:52.725Z,1.73
2023-03-16T18:47:26.906Z,1.40
2023-03-16T18:49:58.567Z,2.17
2023-03-16T18:52:26.326Z,2.00
2023-03-16T18:54:55.791Z,2.15
2023-03-16T18:57:24.747Z,2.03
2023-03-16T18:59:51.864Z,2.08
2023-03-16T19:02:28.563Z,1.67
2023-03-16T19:04:56.846Z,1.42
2023-03-16T19:07:35.083Z,1.45
2023-03-16T19:10:03.752Z,1.90
2023-03-16T19:12:30.730Z,1.60
2023-03-16T19:14:59.927Z,2.38
2023-03-16T19:17:29.399Z,1.48
2023-03-16T19:19:58.889Z,1.60
2023-03-16T19:22:28.177Z,1.50
2023-03-16T19:24:59.714Z,1.50
2023-03-16T19:27:38.164Z,1.20
2023-03-16T19:30:11.315Z,1.58
2023-03-16T19:32:41.299Z,1.50
2023-03-16T19:35:20.655Z,1.48
2023-03-16T19:37:50.291Z,1.55
2023-03-16T19:40:19.539Z,1.85
2023-03-16T19:42:46.541Z,1.70
2023-03-16T19:45:25.455Z,1.60
2023-03-16T19:47:52.644Z,1.63
2023-03-16T19:50:21.883Z,1.50
2023-03-16T19:52:51.453Z,1.63
2023-03-16T19:55:21.290Z,1.58
2023-03-16T19:58:02.532Z,2.13
2023-03-16T20:00:34.785Z,1.55
2023-03-16T20:03:04.103Z,1.73
2023-03-16T20:05:31.742Z,1.25
2023-03-16T20:07:59.155Z,1.70
2023-03-16T20:10:27.602Z,1.63
2023-03-16T20:12:58.392Z,1.80
2023-03-16T20:15:34.193Z,1.42
2023-03-16T20:18:06.796Z,1.58
2023-03-16T20:20:35.168Z,1.67
2023-03-16T20:23:06.375Z,1.58
2023-03-16T20:25:34.705Z,1.42
2023-03-16T20:28:05.196Z,1.63
2023-03-16T20:30:32.793Z,1.58
2023-03-16T20:33:03.675Z,1.45
2023-03-16T20:35:32.457Z,1.70
2023-03-16T20:38:01.841Z,1.85
2023-03-16T20:40:31.862Z,1.75
2023-03-16T20:43:04.117Z,1.73
2023-03-16T20:45:33.621Z,1.63
2023-03-16T20:48:05.026Z,1.38
2023-03-16T20:50:32.043Z,1.60
2023-03-16T20:52:58.963Z,1.58
2023-03-16T20:55:27.132Z,1.90
2023-03-16T20:57:57.480Z,1.52
2023-03-16T21:00:37.316Z,1.70
2023-03-16T21:03:15.550Z,1.60
2023-03-16T21:05:42.686Z,1.50
2023-03-16T21:08:12.764Z,2.53
2023-03-16T21:10:46.467Z,2.00
2023-03-16T21:13:22.059Z,1.60
2023-03-16T21:15:51.299Z,1.63
2023-03-16T21:18:25.475Z,2.03
2023-03-16T21:20:56.305Z,1.60
2023-03-16T21:23:23.875Z,2.10
2023-03-16T21:25:53.740Z,2.03
2023-03-16T21:28:20.746Z,1.85
2023-03-16T21:30:54.038Z,1.92
2023-03-16T21:33:30.090Z,1.83
2023-03-16T21:35:58.223Z,2.00
2023-03-16T21:38:26.147Z,1.50
2023-03-16T21:40:55.649Z,1.92
2023-03-16T21:43:23.258Z,1.70
2023-03-16T21:45:51.740Z,2.00
2023-03-16T21:48:30.357Z,2.00
2023-03-16T21:50:57.344Z,1.70
2023-03-16T21:53:27.216Z,1.70
2023-03-16T21:55:58.790Z,1.70
2023-03-16T21:58:26.084Z,1.92
2023-03-16T22:00:53.667Z,1.88
2023-03-16T22:03:44.212Z,1.90
2023-03-16T22:06:19.087Z,1.98
2023-03-16T22:08:46.036Z,1.70
2023-03-16T22:11:23.001Z,2.33
2023-03-16T22:13:51.941Z,2.17
2023-03-16T22:16:23.314Z,2.28
2023-03-16T22:18:52.044Z,2.20
2023-03-16T22:21:38.808Z,1.90
2023-03-16T22:24:29.559Z,1.85
2023-03-16T22:26:56.671Z,2.25
2023-03-16T22:29:28.422Z,2.17
2023-03-16T22:32:04.437Z,2.13
2023-03-16T22:34:41.633Z,2.10
2023-03-16T22:37:12.467Z,2.30
2023-03-16T22:39:44.887Z,2.22
2023-03-16T22:44:59.091Z,2.08
2023-03-16T22:47:32.374Z,2.22
2023-03-16T22:50:02.307Z,2.65
2023-03-16T22:52:33.312Z,2.42
2023-03-16T22:55:01.004Z,2.28
2023-03-16T22:57:30.432Z,2.22
2023-03-16T22:59:57.383Z,2.38
2023-03-16T23:02:27.458Z,2.20
2023-03-16T23:04:56.656Z,2.47
2023-03-16T23:07:25.970Z,2.20
2023-03-16T23:09:55.750Z,2.58
2023-03-16T23:12:26.188Z,2.03
2023-03-16T23:15:00.032Z,2.25
2023-03-16T23:17:29.122Z,2.40
2023-03-16T23:19:58.419Z,2.00
2023-03-16T23:22:27.565Z,2.17
2023-03-16T23:24:56.736Z,2.20
2023-03-16T23:27:25.805Z,2.10
2023-03-16T23:29:53.232Z,2.60
2023-03-16T23:32:20.207Z,2.20
2023-03-16T23:34:49.378Z,2.20
2023-03-16T23:37:16.379Z,2.72
2023-03-16T23:39:47.135Z,2.25
2023-03-16T23:42:14.067Z,1.73
2023-03-16T23:44:43.270Z,2.17
2023-03-16T23:47:11.007Z,2.30
2023-03-16T23:49:37.915Z,2.33
2023-03-16T23:52:09.542Z,2.50
2023-03-16T23:54:38.601Z,2.05
2023-03-16T23:57:11.209Z,2.20
2023-03-16T23:59:43.030Z,2.30
